createdAt,value
2023-02-14T00:01:55.772Z,52.04
2023-02-14T00:04:22.508Z,51.72
2023-02-14T00:06:49.255Z,52.78
2023-02-14T00:09:17.023Z,51.58
2023-02-14T00:11:43.815Z,50.85
2023-02-14T00:14:29.122Z,53.17
2023-02-14T00:16:55.765Z,52.22
2023-02-14T00:19:22.940Z,53.21
2023-02-14T00:21:49.672Z,52.24
2023-02-14T00:24:26.181Z,51.45
2023-02-14T00:26:53.274Z,50.33
2023-02-14T00:29:24.759Z,51.72
2023-02-14T00:31:51.673Z,51.98
2023-02-14T00:34:18.653Z,52.50
2023-02-14T00:36:45.432Z,52.38
2023-02-14T00:39:13.257Z,54.91
2023-02-14T00:41:40.312Z,55.58
2023-02-14T00:44:07.289Z,54.28
2023-02-14T00:46:34.071Z,54.59
2023-02-14T00:49:00.755Z,53.36
2023-02-14T00:51:27.688Z,52.63
2023-02-14T00:53:54.404Z,53.83
2023-02-14T00:56:21.191Z,56.70
2023-02-14T00:58:47.881Z,54.53
2023-02-14T01:01:15.099Z,57.69
2023-02-14T01:03:41.791Z,54.64
2023-02-14T01:06:08.554Z,55.47
2023-02-14T01:08:35.407Z,58.73
2023-02-14T01:11:12.875Z,58.28
2023-02-14T01:13:39.753Z,57.27
2023-02-14T01:16:07.891Z,54.54
2023-02-14T01:18:34.874Z,56.82
2023-02-14T01:21:30.709Z,54.75
2023-02-14T01:23:58.628Z,52.37
2023-02-14T01:26:25.440Z,54.32
2023-02-14T01:28:52.161Z,53.78
2023-02-14T01:31:26.151Z,52.71
2023-02-14T01:33:53.413Z,55.00
2023-02-14T01:36:21.419Z,55.73
2023-02-14T01:38:48.383Z,55.88
2023-02-14T01:41:15.090Z,56.92
2023-02-14T01:43:50.624Z,57.17
2023-02-14T01:46:17.325Z,57.73
2023-02-14T01:48:44.012Z,56.23
2023-02-14T01:51:10.760Z,54.52
2023-02-14T01:53:37.500Z,56.12
2023-02-14T01:56:05.853Z,55.77
2023-02-14T01:58:35.136Z,55.46
2023-02-14T02:01:02.746Z,56.02
2023-02-14T02:03:34.752Z,59.38
2023-02-14T02:06:24.771Z,58.01
2023-02-14T02:09:10.383Z,56.70
2023-02-14T02:11:38.016Z,55.62
2023-02-14T02:14:05.145Z,57.04
2023-02-14T02:16:40.663Z,56.78
2023-02-14T02:19:16.491Z,57.72
2023-02-14T02:21:58.445Z,57.85
2023-02-14T02:24:31.021Z,56.53
2023-02-14T02:27:02.513Z,54.89
2023-02-14T02:29:38.408Z,55.35
2023-02-14T02:32:19.443Z,56.23
2023-02-14T02:34:58.266Z,58.19
2023-02-14T02:37:24.932Z,58.51
2023-02-14T02:40:11.160Z,59.77
2023-02-14T02:42:40.814Z,58.43
2023-02-14T02:45:20.977Z,58.01
2023-02-14T02:47:54.463Z,58.96
2023-02-14T02:50:45.900Z,60.36
2023-02-14T02:53:24.279Z,60.06
2023-02-14T02:56:09.411Z,61.73
2023-02-14T02:58:46.082Z,59.24
2023-02-14T03:01:13.976Z,60.11
2023-02-14T03:03:59.440Z,59.09
2023-02-14T03:06:26.137Z,60.71
2023-02-14T03:08:52.837Z,61.63
2023-02-14T03:11:19.529Z,61.20
2023-02-14T03:13:58.430Z,60.66
2023-02-14T03:16:27.153Z,62.79
2023-02-14T03:19:16.686Z,59.88
2023-02-14T03:21:55.350Z,60.33
2023-02-14T03:24:51.347Z,60.23
2023-02-14T03:27:36.899Z,63.44
2023-02-14T03:30:09.387Z,59.66
2023-02-14T03:32:40.095Z,58.99
2023-02-14T03:35:11.903Z,58.82
2023-02-14T03:38:00.176Z,59.85
2023-02-14T03:40:43.355Z,60.15
2023-02-14T03:43:14.676Z,60.18
2023-02-14T03:45:52.520Z,58.38
2023-02-14T03:48:19.289Z,60.14
2023-02-14T03:50:46.731Z,59.70
2023-02-14T03:53:13.391Z,61.62
2023-02-14T03:55:45.050Z,60.54
2023-02-14T03:58:14.834Z,60.55
2023-02-14T04:00:41.570Z,59.75
2023-02-14T04:03:12.116Z,60.67
2023-02-14T04:05:42.323Z,60.64
2023-02-14T04:08:09.003Z,58.89
2023-02-14T04:10:35.703Z,60.74
2023-02-14T04:13:02.408Z,59.71
2023-02-14T04:15:29.311Z,60.05
2023-02-14T04:18:14.320Z,59.53
2023-02-14T04:20:40.985Z,58.42
2023-02-14T04:23:07.666Z,58.98
2023-02-14T04:25:34.381Z,60.11
2023-02-14T04:28:01.086Z,58.82
2023-02-14T04:30:27.909Z,60.08
2023-02-14T04:32:54.602Z,59.82
2023-02-14T04:35:21.285Z,58.58
2023-02-14T04:37:47.979Z,57.71
2023-02-14T04:40:17.395Z,57.32
2023-02-14T04:42:47.399Z,59.02
2023-02-14T04:45:14.391Z,58.26
2023-02-14T04:47:41.255Z,58.46
2023-02-14T04:50:08.089Z,58.73
2023-02-14T04:52:34.775Z,58.46
2023-02-14T04:55:01.611Z,58.09
2023-02-14T04:57:28.329Z,57.33
2023-02-14T04:59:55.035Z,57.42
2023-02-14T05:02:21.747Z,59.24
2023-02-14T05:04:49.795Z,57.08
2023-02-14T05:07:16.616Z,61.49
2023-02-14T05:09:43.435Z,59.74
2023-02-14T05:12:10.244Z,57.99
2023-02-14T05:14:36.954Z,59.09
2023-02-14T05:17:03.713Z,58.18
2023-02-14T05:19:30.385Z,59.52
2023-02-14T05:21:57.112Z,59.56
2023-02-14T05:24:23.745Z,61.75
2023-02-14T05:26:50.391Z,62.52
2023-02-14T05:29:17.117Z,62.87
2023-02-14T05:31:43.877Z,60.05
2023-02-14T05:34:10.603Z,58.53
2023-02-14T05:36:37.295Z,60.43
2023-02-14T05:39:04.168Z,63.35
2023-02-14T05:41:31.285Z,64.36
2023-02-14T05:43:57.982Z,62.85
2023-02-14T05:46:24.652Z,62.36
2023-02-14T05:48:51.324Z,59.25
2023-02-14T05:51:17.970Z,63.29
2023-02-14T05:53:44.676Z,62.87
2023-02-14T05:56:11.329Z,62.39
2023-02-14T05:58:38.024Z,59.72
2023-02-14T06:01:04.808Z,61.10
2023-02-14T06:03:31.523Z,61.90
2023-02-14T06:05:58.225Z,62.76
2023-02-14T06:08:24.937Z,66.62
2023-02-14T06:10:51.573Z,63.35
2023-02-14T06:13:18.369Z,62.83
2023-02-14T06:15:45.073Z,56.88
2023-02-14T06:18:11.777Z,59.60
2023-02-14T06:20:38.482Z,63.49
2023-02-14T06:23:05.187Z,60.27
2023-02-14T06:25:31.857Z,61.65
2023-02-14T06:27:59.263Z,62.47
2023-02-14T06:30:26.180Z,60.49
2023-02-14T06:32:53.022Z,62.53
2023-02-14T06:35:19.702Z,60.56
2023-02-14T06:37:46.426Z,59.87
2023-02-14T06:40:13.512Z,61.96
2023-02-14T06:42:40.291Z,61.57
2023-02-14T06:45:07.133Z,58.65
2023-02-14T06:47:35.144Z,61.82
2023-02-14T06:50:02.265Z,60.20
2023-02-14T06:52:28.942Z,58.68
2023-02-14T06:54:58.770Z,59.63
2023-02-14T06:57:26.591Z,61.22
2023-02-14T06:59:53.355Z,60.29
2023-02-14T07:02:21.250Z,59.68
2023-02-14T07:04:49.062Z,61.08
2023-02-14T07:07:17.412Z,59.45
2023-02-14T07:09:44.205Z,62.30
2023-02-14T07:12:10.893Z,59.47
2023-02-14T07:14:37.552Z,59.78
2023-02-14T07:17:04.192Z,63.32
2023-02-14T07:19:30.892Z,62.43
2023-02-14T07:21:57.597Z,62.52
2023-02-14T07:24:24.447Z,62.91
2023-02-14T07:26:51.126Z,63.39
2023-02-14T07:29:17.809Z,63.75
2023-02-14T07:31:44.524Z,63.51
2023-02-14T07:34:11.687Z,61.29
2023-02-14T07:36:39.090Z,62.26
2023-02-14T07:39:05.963Z,60.29
2023-02-14T07:41:32.663Z,62.76
2023-02-14T07:43:59.460Z,59.94
2023-02-14T07:46:26.212Z,58.57
2023-02-14T07:48:52.964Z,59.09
2023-02-14T07:51:19.909Z,60.70
2023-02-14T07:53:47.545Z,61.54
2023-02-14T07:56:14.303Z,62.38
2023-02-14T07:58:41.009Z,62.26
2023-02-14T08:01:07.682Z,60.46
2023-02-14T08:03:34.497Z,60.63
2023-02-14T08:06:01.372Z,62.15
2023-02-14T08:08:30.608Z,62.69
2023-02-14T08:10:57.393Z,59.68
2023-02-14T08:13:24.299Z,58.17
2023-02-14T08:16:06.459Z,58.46
2023-02-14T08:18:36.114Z,58.50
2023-02-14T08:21:02.996Z,62.37
2023-02-14T08:23:29.861Z,58.62
2023-02-14T08:25:56.597Z,58.06
2023-02-14T08:28:23.520Z,58.16
2023-02-14T08:30:50.429Z,58.18
2023-02-14T08:33:17.173Z,57.75
2023-02-14T08:35:43.865Z,54.39
2023-02-14T08:38:10.774Z,56.70
2023-02-14T08:40:47.122Z,55.25
2023-02-14T08:43:13.972Z,55.58
2023-02-14T08:45:40.685Z,55.15
2023-02-14T08:48:11.281Z,55.29
2023-02-14T08:50:38.387Z,57.40
2023-02-14T08:53:08.860Z,56.91
2023-02-14T08:55:36.006Z,56.99
2023-02-14T08:58:03.785Z,58.10
2023-02-14T09:00:30.832Z,53.19
2023-02-14T09:02:57.566Z,57.00
2023-02-14T09:05:24.219Z,57.28
2023-02-14T09:07:51.071Z,56.89
2023-02-14T09:10:18.846Z,53.80
2023-02-14T09:12:45.519Z,52.34
2023-02-14T09:15:12.488Z,54.18
2023-02-14T09:17:39.367Z,57.28
2023-02-14T09:20:07.000Z,55.44
2023-02-14T09:22:34.180Z,57.43
2023-02-14T09:25:01.200Z,56.81
2023-02-14T09:27:27.865Z,57.92
2023-02-14T09:29:54.620Z,57.36
2023-02-14T09:32:21.424Z,59.72
2023-02-14T09:35:06.899Z,59.75
2023-02-14T09:37:33.598Z,60.28
2023-02-14T09:40:00.291Z,59.63
2023-02-14T09:42:34.644Z,59.35
2023-02-14T09:45:01.297Z,60.32
2023-02-14T09:47:37.023Z,61.91
2023-02-14T09:50:06.171Z,61.65
2023-02-14T09:52:32.998Z,62.95
2023-02-14T09:55:01.343Z,67.25
2023-02-14T09:57:32.109Z,65.16
2023-02-14T10:00:19.273Z,64.08
2023-02-14T10:02:59.997Z,64.77
2023-02-14T10:05:26.719Z,67.95
2023-02-14T10:07:58.065Z,66.66
2023-02-14T10:10:33.968Z,65.33
2023-02-14T10:13:16.012Z,62.38
2023-02-14T10:15:46.700Z,61.48
2023-02-14T10:18:18.803Z,61.95
2023-02-14T10:20:46.580Z,61.57
2023-02-14T10:23:32.105Z,63.36
2023-02-14T10:26:05.896Z,63.70
2023-02-14T10:28:33.915Z,66.83
2023-02-14T10:31:03.821Z,62.67
2023-02-14T10:33:31.015Z,59.86
2023-02-14T10:36:01.012Z,62.83
2023-02-14T10:38:27.743Z,65.11
2023-02-14T10:41:04.196Z,63.76
2023-02-14T10:43:30.833Z,64.16
2023-02-14T10:46:07.085Z,63.97
2023-02-14T10:49:20.437Z,63.27
2023-02-14T10:51:20.960Z,62.23
2023-02-14T10:54:02.624Z,63.89
2023-02-14T10:56:37.264Z,60.31
2023-02-14T10:59:12.799Z,61.20
2023-02-14T11:01:39.657Z,59.27
2023-02-14T11:04:08.837Z,61.25
2023-02-14T11:06:38.167Z,59.75
2023-02-14T11:09:05.048Z,58.20
2023-02-14T11:11:33.309Z,56.89
2023-02-14T11:14:03.177Z,56.51
2023-02-14T11:16:36.000Z,57.51
2023-02-14T11:19:15.087Z,57.01
2023-02-14T11:21:44.391Z,57.76
2023-02-14T11:24:26.460Z,58.44
2023-02-14T11:26:55.830Z,61.52
2023-02-14T11:29:54.245Z,60.65
2023-02-14T11:32:31.498Z,59.50
2023-02-14T11:35:02.377Z,59.62
2023-02-14T11:37:34.137Z,61.14
2023-02-14T11:40:04.309Z,61.74
2023-02-14T11:42:44.286Z,63.22
2023-02-14T11:46:06.764Z,62.82
2023-02-14T11:48:42.097Z,61.87
2023-02-14T11:51:15.182Z,64.00
2023-02-14T11:53:56.845Z,61.46
2023-02-14T11:56:43.196Z,59.68
2023-02-14T11:59:12.158Z,62.07
2023-02-14T12:01:38.973Z,58.19
2023-02-14T12:04:15.489Z,59.34
2023-02-14T12:06:48.281Z,58.73
2023-02-14T12:09:34.116Z,56.75
2023-02-14T12:12:11.877Z,56.54
2023-02-14T12:14:40.124Z,56.79
2023-02-14T12:17:26.059Z,59.41
2023-02-14T12:20:05.295Z,58.24
2023-02-14T12:22:34.004Z,57.21
2023-02-14T12:25:07.649Z,58.90
2023-02-14T12:27:41.286Z,57.26
2023-02-14T12:30:37.363Z,57.44
2023-02-14T12:33:10.029Z,63.82
2023-02-14T12:35:36.825Z,64.20
2023-02-14T12:38:09.725Z,62.66
2023-02-14T12:40:46.507Z,59.79
2023-02-14T12:43:32.089Z,61.85
2023-02-14T12:46:08.784Z,62.07
2023-02-14T12:48:38.479Z,63.11
2023-02-14T12:51:11.122Z,63.78
2023-02-14T12:53:56.417Z,63.76
2023-02-14T12:57:40.744Z,63.19
2023-02-14T13:00:14.810Z,63.19
2023-02-14T13:02:56.685Z,64.97
2023-02-14T13:05:54.954Z,66.50
2023-02-14T13:08:24.921Z,64.57
2023-02-14T13:11:01.172Z,64.73
2023-02-14T13:13:40.452Z,67.14
2023-02-14T13:16:27.685Z,68.21
2023-02-14T13:19:13.917Z,67.79
2023-02-14T13:21:41.435Z,69.18
2023-02-14T13:24:22.292Z,68.55
2023-02-14T13:26:54.794Z,65.11
2023-02-14T13:29:24.482Z,66.45
2023-02-14T13:31:54.691Z,65.88
2023-02-14T13:34:32.820Z,68.29
2023-02-14T13:37:01.425Z,67.72
2023-02-14T13:39:43.596Z,67.59
2023-02-14T13:42:11.291Z,66.71
2023-02-14T13:44:46.653Z,66.26
2023-02-14T13:47:17.855Z,69.90
2023-02-14T13:50:01.318Z,69.78
2023-02-14T13:52:46.666Z,69.35
2023-02-14T13:55:23.109Z,70.33
2023-02-14T13:58:13.014Z,70.05
2023-02-14T14:00:47.174Z,68.91
2023-02-14T14:03:28.088Z,69.98
2023-02-14T14:06:09.162Z,70.68
2023-02-14T14:08:43.151Z,69.41
2023-02-14T14:11:22.313Z,70.03
2023-02-14T14:14:02.137Z,71.16
2023-02-14T14:16:30.751Z,72.83
2023-02-14T14:19:09.571Z,71.82
2023-02-14T14:22:04.425Z,72.54
2023-02-14T14:24:39.620Z,72.91
2023-02-14T14:27:25.581Z,72.87
2023-02-14T14:30:04.126Z,74.26
2023-02-14T14:32:37.006Z,73.93
2023-02-14T14:35:23.023Z,74.92
2023-02-14T14:37:53.134Z,73.19
2023-02-14T14:40:26.328Z,72.04
2023-02-14T14:42:53.669Z,73.02
2023-02-14T14:45:26.118Z,73.67
2023-02-14T14:47:55.610Z,73.55
2023-02-14T14:50:24.956Z,75.83
2023-02-14T14:53:14.677Z,76.40
2023-02-14T14:55:44.538Z,74.97
2023-02-14T14:58:32.744Z,75.69
2023-02-14T15:00:59.949Z,75.58
2023-02-14T15:03:29.427Z,77.60
2023-02-14T15:06:22.209Z,77.94
2023-02-14T15:08:52.135Z,78.03
2023-02-14T15:11:42.240Z,77.19
2023-02-14T15:14:15.647Z,77.37
2023-02-14T15:16:50.906Z,78.53
2023-02-14T15:19:34.405Z,79.07
2023-02-14T15:22:02.778Z,79.38
2023-02-14T15:24:31.696Z,79.02
2023-02-14T15:26:58.588Z,78.82
2023-02-14T15:29:28.786Z,79.73
2023-02-14T15:31:58.130Z,80.01
2023-02-14T15:34:29.025Z,78.40
2023-02-14T15:36:59.420Z,79.19
2023-02-14T15:39:33.056Z,79.55
2023-02-14T15:42:00.010Z,77.23
2023-02-14T15:44:27.120Z,79.23
2023-02-14T15:47:05.866Z,78.31
2023-02-14T15:49:37.436Z,79.65
2023-02-14T15:52:06.081Z,77.19
2023-02-14T15:54:38.913Z,77.63
2023-02-14T15:57:08.386Z,78.61
2023-02-14T15:59:36.613Z,76.72
2023-02-14T16:02:29.338Z,74.76
2023-02-14T16:05:03.934Z,75.24
2023-02-14T16:07:30.992Z,76.14
2023-02-14T16:10:22.560Z,74.60
2023-02-14T16:13:01.168Z,74.24
2023-02-14T16:15:32.003Z,74.63
2023-02-14T16:17:59.925Z,76.29
2023-02-14T16:20:26.839Z,74.54
2023-02-14T16:22:54.526Z,74.78
2023-02-14T16:25:21.854Z,76.61
2023-02-14T16:27:48.742Z,75.52
2023-02-14T16:30:17.790Z,75.39
2023-02-14T16:32:50.319Z,73.99
2023-02-14T16:35:20.432Z,72.82
2023-02-14T16:37:47.944Z,72.60
2023-02-14T16:40:16.078Z,74.05
2023-02-14T16:42:43.658Z,73.57
2023-02-14T16:45:19.831Z,71.16
2023-02-14T16:47:47.561Z,68.52
2023-02-14T16:50:15.159Z,72.08
2023-02-14T16:52:43.290Z,73.39
2023-02-14T16:55:17.895Z,71.64
2023-02-14T16:57:46.725Z,72.78
2023-02-14T17:00:14.298Z,73.75
2023-02-14T17:02:44.282Z,72.15
2023-02-14T17:05:11.665Z,70.65
2023-02-14T17:07:41.762Z,71.32
2023-02-14T17:10:11.841Z,69.20
2023-02-14T17:12:42.237Z,67.79
2023-02-14T17:15:13.420Z,67.39
2023-02-14T17:17:40.478Z,67.28
2023-02-14T17:20:08.516Z,68.85
2023-02-14T17:22:36.785Z,68.53
2023-02-14T17:25:05.495Z,68.75
2023-02-14T17:27:34.443Z,69.30
2023-02-14T17:30:01.718Z,69.99
2023-02-14T17:32:28.651Z,70.80
2023-02-14T17:34:56.482Z,69.64
2023-02-14T17:37:23.381Z,68.90
2023-02-14T17:39:50.070Z,68.24
2023-02-14T17:42:16.908Z,68.39
2023-02-14T17:44:44.119Z,67.79
2023-02-14T17:47:14.941Z,67.51
2023-02-14T17:49:42.592Z,68.65
2023-02-14T17:52:09.478Z,69.04
2023-02-14T17:54:39.492Z,69.80
2023-02-14T17:57:07.617Z,68.99
2023-02-14T17:59:35.056Z,70.40
2023-02-14T18:02:01.991Z,71.58
2023-02-14T18:04:30.574Z,72.54
2023-02-14T18:06:57.408Z,73.03
2023-02-14T18:09:25.927Z,72.19
2023-02-14T18:11:52.802Z,74.40
2023-02-14T18:14:19.503Z,74.91
2023-02-14T18:16:46.362Z,74.89
2023-02-14T18:19:16.112Z,73.98
2023-02-14T18:21:44.680Z,72.29
2023-02-14T18:24:12.197Z,73.44
2023-02-14T18:26:40.901Z,72.71
2023-02-14T18:29:08.182Z,72.45
2023-02-14T18:31:37.796Z,76.31
2023-02-14T18:34:05.297Z,74.79
2023-02-14T18:36:32.574Z,75.57
2023-02-14T18:38:59.462Z,75.02
2023-02-14T18:41:26.469Z,75.98
2023-02-14T18:43:53.559Z,76.44
2023-02-14T18:46:25.924Z,77.11
2023-02-14T18:48:53.228Z,77.09
2023-02-14T18:51:26.342Z,78.43
2023-02-14T18:53:55.033Z,79.26
2023-02-14T18:56:24.277Z,79.61
2023-02-14T18:58:54.118Z,79.88
2023-02-14T19:01:24.081Z,76.99
2023-02-14T19:03:53.004Z,78.90
2023-02-14T19:06:20.893Z,79.44
2023-02-14T19:08:48.466Z,80.59
2023-02-14T19:11:23.488Z,78.46
2023-02-14T19:13:53.533Z,79.46
2023-02-14T19:16:32.056Z,79.11
2023-02-14T19:18:59.995Z,81.21
2023-02-14T19:21:30.885Z,81.11
2023-02-14T19:23:58.222Z,80.13
2023-02-14T19:26:27.189Z,82.40
2023-02-14T19:29:00.049Z,84.06
2023-02-14T19:31:27.824Z,83.45
2023-02-14T19:33:54.976Z,81.91
2023-02-14T19:36:24.539Z,83.69
2023-02-14T19:38:52.942Z,82.11
2023-02-14T19:41:25.545Z,81.31
2023-02-14T19:43:52.633Z,81.32
2023-02-14T19:46:20.554Z,79.17
2023-02-14T19:48:47.810Z,78.73
2023-02-14T19:51:25.908Z,80.87
2023-02-14T19:53:53.534Z,80.60
2023-02-14T19:56:26.610Z,79.59
2023-02-14T19:58:54.076Z,80.58
2023-02-14T20:01:51.444Z,81.30
2023-02-14T20:04:21.717Z,81.70
2023-02-14T20:06:49.553Z,81.69
2023-02-14T20:09:24.335Z,84.32
2023-02-14T20:11:54.642Z,83.06
2023-02-14T20:14:26.662Z,82.16
2023-02-14T20:16:55.251Z,81.12
2023-02-14T20:19:24.346Z,81.73
2023-02-14T20:21:51.497Z,80.77
2023-02-14T20:24:26.716Z,80.68
2023-02-14T20:26:54.205Z,79.90
2023-02-14T20:29:21.980Z,78.68
2023-02-14T20:31:51.118Z,77.70
2023-02-14T20:34:19.558Z,80.80
2023-02-14T20:36:53.355Z,80.53
2023-02-14T20:39:22.620Z,83.62
2023-02-14T20:41:50.405Z,83.31
2023-02-14T20:44:21.994Z,82.73
2023-02-14T20:46:51.775Z,82.35
2023-02-14T20:49:19.885Z,83.56
2023-02-14T20:51:46.925Z,83.44
2023-02-14T20:54:13.810Z,85.38
2023-02-14T20:56:40.570Z,84.06
2023-02-14T20:59:08.778Z,82.97
2023-02-14T21:01:36.282Z,81.77
2023-02-14T21:04:03.405Z,80.50
2023-02-14T21:06:32.966Z,84.27
2023-02-14T21:09:00.534Z,82.76
2023-02-14T21:11:27.937Z,82.34
2023-02-14T21:13:59.906Z,84.91
2023-02-14T21:16:27.710Z,85.82
2023-02-14T21:18:59.648Z,84.72
2023-02-14T21:21:32.593Z,84.77
2023-02-14T21:24:01.334Z,82.87
2023-02-14T21:26:29.097Z,82.12
2023-02-14T21:28:55.967Z,83.64
2023-02-14T21:31:25.639Z,81.38
2023-02-14T21:33:55.052Z,83.84
2023-02-14T21:36:23.485Z,85.49
2023-02-14T21:38:51.057Z,86.70
2023-02-14T21:41:20.215Z,86.11
2023-02-14T21:43:49.122Z,85.97
2023-02-14T21:46:18.212Z,85.05
2023-02-14T21:49:04.170Z,84.34
2023-02-14T21:51:31.839Z,86.32
2023-02-14T21:54:02.433Z,85.39
2023-02-14T21:56:29.384Z,84.55
2023-02-14T21:58:56.521Z,84.78
2023-02-14T22:01:25.629Z,83.53
2023-02-14T22:03:52.824Z,84.79
2023-02-14T22:06:20.240Z,86.05
2023-02-14T22:08:47.660Z,84.26
2023-02-14T22:11:15.997Z,85.35
2023-02-14T22:13:43.196Z,88.76
2023-02-14T22:16:12.528Z,88.47
2023-02-14T22:18:39.821Z,87.68
2023-02-14T22:21:11.929Z,86.24
2023-02-14T22:23:39.097Z,83.98
2023-02-14T22:26:13.491Z,83.74
2023-02-14T22:28:45.243Z,85.56
2023-02-14T22:31:12.779Z,83.96
2023-02-14T22:33:40.119Z,83.40
2023-02-14T22:36:08.499Z,83.83
2023-02-14T22:38:35.895Z,86.30
2023-02-14T22:41:07.809Z,87.79
2023-02-14T22:43:35.553Z,87.29
2023-02-14T22:46:05.865Z,86.46
2023-02-14T22:48:35.720Z,86.75
2023-02-14T22:51:20.007Z,84.38
2023-02-14T22:53:47.242Z,86.29
2023-02-14T22:56:19.387Z,85.04
2023-02-14T22:58:46.931Z,85.05
2023-02-14T23:01:18.496Z,85.17
2023-02-14T23:03:45.912Z,85.05
2023-02-14T23:06:14.044Z,85.16
2023-02-14T23:08:45.147Z,84.56
2023-02-14T23:11:18.335Z,86.24
2023-02-14T23:14:04.330Z,85.97
2023-02-14T23:16:50.564Z,86.02
2023-02-14T23:19:41.143Z,85.86
2023-02-14T23:22:11.844Z,87.08
2023-02-14T23:24:39.403Z,87.54
2023-02-14T23:27:07.520Z,87.91
2023-02-14T23:29:34.403Z,87.75
2023-02-14T23:32:01.098Z,86.05
2023-02-14T23:34:30.673Z,88.14
2023-02-14T23:36:57.976Z,86.90
2023-02-14T23:39:24.960Z,85.91
2023-02-14T23:41:51.933Z,86.89
2023-02-14T23:44:22.871Z,86.04
2023-02-14T23:46:51.333Z,85.55
2023-02-14T23:49:18.658Z,83.92
2023-02-14T23:51:46.426Z,84.48
2023-02-14T23:54:13.945Z,84.90
2023-02-14T23:56:41.453Z,83.71
2023-02-14T23:59:08.715Z,84.65
